sensor_id;sensor_type;location;lat;lon;timestamp;pressure;altitude;pressure_sealevel;temperature;humidity
64211;BME280;50528;48.514;14.394;2022-09-03T00:00:17;93770.30;;;9.58;68.80
64211;BME280;50528;48.514;14.394;2022-09-03T00:01:42;93771.52;;;9.59;68.98
64211;BME280;50528;48.514;14.394;2022-09-03T00:03:05;93769.91;;;9.60;68.74
64211;BME280;50528;48.514;14.394;2022-09-03T00:04:11;93770.07;;;9.60;68.92
64211;BME280;50528;48.514;14.394;2022-09-03T00:05:34;93769.45;;;9.60;69.03
64211;BME280;50528;48.514;14.394;2022-09-03T00:06:39;93769.02;;;9.60;68.82
64211;BME280;50528;48.514;14.394;2022-09-03T00:07:51;93767.53;;;9.58;68.98
64211;BME280;50528;48.514;14.394;2022-09-03T00:09:05;93767.82;;;9.59;68.70
64211;BME280;50528;48.514;14.394;2022-09-03T00:10:11;93767.65;;;9.59;68.69
64211;BME280;50528;48.514;14.394;2022-09-03T00:11:24;93768.52;;;9.58;68.81
64211;BME280;50528;48.514;14.394;2022-09-03T00:12:27;93766.91;;;9.58;68.68
64211;BME280;50528;48.514;14.394;2022-09-03T00:13:32;93767.27;;;9.58;68.52
64211;BME280;50528;48.514;14.394;2022-09-03T00:14:38;93767.73;;;9.58;68.75
64211;BME280;50528;48.514;14.394;2022-09-03T00:15:41;93763.59;;;9.58;68.75
64211;BME280;50528;48.514;14.394;2022-09-03T00:18:15;93765.38;;;9.58;68.93
64211;BME280;50528;48.514;14.394;2022-09-03T00:19:18;93760.12;;;9.57;68.81
64211;BME280;50528;48.514;14.394;2022-09-03T00:20:31;93759.56;;;9.59;68.74
64211;BME280;50528;48.514;14.394;2022-09-03T00:21:43;93761.77;;;9.59;68.57
64211;BME280;50528;48.514;14.394;2022-09-03T00:22:50;93763.91;;;9.59;68.58
64211;BME280;50528;48.514;14.394;2022-09-03T00:23:53;93764.96;;;9.58;68.57
64211;BME280;50528;48.514;14.394;2022-09-03T00:24:55;93766.47;;;9.58;68.78
64211;BME280;50528;48.514;14.394;2022-09-03T00:26:05;93763.88;;;9.56;68.64
64211;BME280;50528;48.514;14.394;2022-09-03T00:27:16;93763.64;;;9.55;68.84
64211;BME280;50528;48.514;14.394;2022-09-03T00:28:21;93763.44;;;9.55;68.46
64211;BME280;50528;48.514;14.394;2022-09-03T00:29:34;93764.01;;;9.55;68.72
64211;BME280;50528;48.514;14.394;2022-09-03T00:30:37;93763.11;;;9.54;68.54
64211;BME280;50528;48.514;14.394;2022-09-03T00:31:45;93759.29;;;9.54;69.09
64211;BME280;50528;48.514;14.394;2022-09-03T00:32:49;93759.23;;;9.53;68.82
64211;BME280;50528;48.514;14.394;2022-09-03T00:33:56;93762.14;;;9.52;68.54
64211;BME280;50528;48.514;14.394;2022-09-03T00:35:00;93761.65;;;9.51;68.98
64211;BME280;50528;48.514;14.394;2022-09-03T00:36:05;93763.98;;;9.49;69.28
64211;BME280;50528;48.514;14.394;2022-09-03T00:37:09;93766.18;;;9.48;68.98
64211;BME280;50528;48.514;14.394;2022-09-03T00:38:16;93764.54;;;9.47;68.77
64211;BME280;50528;48.514;14.394;2022-09-03T00:39:18;93762.48;;;9.47;68.72
64211;BME280;50528;48.514;14.394;2022-09-03T00:43:00;93772.20;;;9.47;68.93
64211;BME280;50528;48.514;14.394;2022-09-03T00:52:19;93764.17;;;9.43;69.11
64211;BME280;50528;48.514;14.394;2022-09-03T00:53:27;93771.23;;;9.45;68.80
64211;BME280;50528;48.514;14.394;2022-09-03T00:54:35;93766.95;;;9.43;68.83
64211;BME280;50528;48.514;14.394;2022-09-03T00:55:56;93768.17;;;9.45;69.08
64211;BME280;50528;48.514;14.394;2022-09-03T01:00:15;93769.70;;;9.48;69.25
64211;BME280;50528;48.514;14.394;2022-09-03T01:00:58;93765.45;;;9.50;69.15
64211;BME280;50528;48.514;14.394;2022-09-03T01:02:11;93766.82;;;9.49;69.27
64211;BME280;50528;48.514;14.394;2022-09-03T01:04:31;93766.82;;;9.53;68.95
64211;BME280;50528;48.514;14.394;2022-09-03T01:09:17;93762.71;;;9.49;69.08
64211;BME280;50528;48.514;14.394;2022-09-03T01:12:37;93754.66;;;9.45;69.30
64211;BME280;50528;48.514;14.394;2022-09-03T01:13:09;93743.27;;;9.38;68.91
64211;BME280;50528;48.514;14.394;2022-09-03T01:14:21;93754.53;;;9.47;69.09
64211;BME280;50528;48.514;14.394;2022-09-03T01:18:05;93759.61;;;9.47;69.34
64211;BME280;50528;48.514;14.394;2022-09-03T01:23:02;93761.12;;;9.43;69.16
64211;BME280;50528;48.514;14.394;2022-09-03T01:27:44;93757.73;;;9.37;69.10
64211;BME280;50528;48.514;14.394;2022-09-03T01:30:04;93760.85;;;9.35;69.06
64211;BME280;50528;48.514;14.394;2022-09-03T01:31:13;93758.42;;;9.33;69.11
64211;BME280;50528;48.514;14.394;2022-09-03T01:32:26;93760.45;;;9.33;69.19
64211;BME280;50528;48.514;14.394;2022-09-03T01:33:36;93756.70;;;9.31;69.40
64211;BME280;50528;48.514;14.394;2022-09-03T01:35:51;93756.94;;;9.28;68.98
64211;BME280;50528;48.514;14.394;2022-09-03T01:38:24;93761.54;;;9.25;69.02
64211;BME280;50528;48.514;14.394;2022-09-03T01:45:57;93760.79;;;9.03;69.15
64211;BME280;50528;48.514;14.394;2022-09-03T01:47:04;93766.13;;;9.01;69.39
64211;BME280;50528;48.514;14.394;2022-09-03T01:49:37;93767.85;;;8.95;69.18
64211;BME280;50528;48.514;14.394;2022-09-03T01:50:43;93767.56;;;8.93;69.09
64211;BME280;50528;48.514;14.394;2022-09-03T01:51:46;93765.90;;;8.91;69.11
64211;BME280;50528;48.514;14.394;2022-09-03T01:53:02;93764.36;;;8.89;69.45
64211;BME280;50528;48.514;14.394;2022-09-03T01:59:14;93765.16;;;8.77;70.11
64211;BME280;50528;48.514;14.394;2022-09-03T02:00:21;93761.80;;;8.77;69.67
64211;BME280;50528;48.514;14.394;2022-09-03T02:01:25;93762.11;;;8.77;69.65
64211;BME280;50528;48.514;14.394;2022-09-03T02:02:29;93762.42;;;8.77;69.90
64211;BME280;50528;48.514;14.394;2022-09-03T02:03:37;93756.54;;;8.76;69.53
64211;BME280;50528;48.514;14.394;2022-09-03T02:04:42;93758.97;;;8.77;69.63
64211;BME280;50528;48.514;14.394;2022-09-03T02:05:57;93756.17;;;8.76;69.76
64211;BME280;50528;48.514;14.394;2022-09-03T02:06:59;93759.73;;;8.75;69.84
64211;BME280;50528;48.514;14.394;2022-09-03T02:08:03;93757.58;;;8.76;70.28
64211;BME280;50528;48.514;14.394;2022-09-03T02:09:08;93756.23;;;8.76;70.23
64211;BME280;50528;48.514;14.394;2022-09-03T02:10:17;93758.61;;;8.77;70.22
64211;BME280;50528;48.514;14.394;2022-09-03T02:11:19;93757.02;;;8.78;70.01
64211;BME280;50528;48.514;14.394;2022-09-03T02:12:20;93756.77;;;8.77;69.83
64211;BME280;50528;48.514;14.394;2022-09-03T02:13:24;93758.89;;;8.76;69.58
64211;BME280;50528;48.514;14.394;2022-09-03T02:14:27;93763.36;;;8.78;69.69
64211;BME280;50528;48.514;14.394;2022-09-03T02:15:29;93762.47;;;8.80;69.70
64211;BME280;50528;48.514;14.394;2022-09-03T02:16:32;93766.29;;;8.82;69.90
64211;BME280;50528;48.514;14.394;2022-09-03T02:17:35;93762.52;;;8.82;69.81
64211;BME280;50528;48.514;14.394;2022-09-03T02:18:39;93761.64;;;8.84;69.62
64211;BME280;50528;48.514;14.394;2022-09-03T02:19:44;93768.17;;;8.86;69.81
64211;BME280;50528;48.514;14.394;2022-09-03T02:20:46;93768.65;;;8.86;69.70
64211;BME280;50528;48.514;14.394;2022-09-03T02:21:49;93765.80;;;8.85;69.76
64211;BME280;50528;48.514;14.394;2022-09-03T02:22:56;93764.89;;;8.84;69.76
64211;BME280;50528;48.514;14.394;2022-09-03T02:23:58;93765.10;;;8.84;69.98
64211;BME280;50528;48.514;14.394;2022-09-03T02:25:01;93765.25;;;8.83;70.10
64211;BME280;50528;48.514;14.394;2022-09-03T02:26:03;93764.20;;;8.84;70.16
64211;BME280;50528;48.514;14.394;2022-09-03T02:27:04;93765.48;;;8.85;70.13
64211;BME280;50528;48.514;14.394;2022-09-03T02:28:06;93762.30;;;8.85;70.51
64211;BME280;50528;48.514;14.394;2022-09-03T02:29:18;93761.02;;;8.88;70.58
64211;BME280;50528;48.514;14.394;2022-09-03T02:30:20;93765.11;;;8.91;70.69
64211;BME280;50528;48.514;14.394;2022-09-03T02:31:22;93768.09;;;8.94;70.49
64211;BME280;50528;48.514;14.394;2022-09-03T02:32:24;93769.02;;;8.96;70.65
64211;BME280;50528;48.514;14.394;2022-09-03T02:33:26;93766.48;;;8.98;70.67
64211;BME280;50528;48.514;14.394;2022-09-03T02:34:28;93766.20;;;8.99;70.74
64211;BME280;50528;48.514;14.394;2022-09-03T02:35:30;93764.86;;;9.01;70.49
64211;BME280;50528;48.514;14.394;2022-09-03T02:36:43;93767.60;;;9.03;70.30
64211;BME280;50528;48.514;14.394;2022-09-03T02:37:46;93764.83;;;9.03;70.66
64211;BME280;50528;48.514;14.394;2022-09-03T02:38:47;93766.63;;;9.03;70.43
64211;BME280;50528;48.514;14.394;2022-09-03T02:39:50;93765.21;;;9.03;70.43
64211;BME280;50528;48.514;14.394;2022-09-03T02:40:52;93765.09;;;9.03;70.55
64211;BME280;50528;48.514;14.394;2022-09-03T02:41:56;93766.13;;;9.02;70.24
64211;BME280;50528;48.514;14.394;2022-09-03T02:43:00;93765.54;;;9.00;70.26
64211;BME280;50528;48.514;14.394;2022-09-03T02:45:24;93768.76;;;8.99;70.01
64211;BME280;50528;48.514;14.394;2022-09-03T02:46:35;93773.06;;;8.97;69.96
64211;BME280;50528;48.514;14.394;2022-09-03T02:47:38;93772.57;;;8.95;69.96
64211;BME280;50528;48.514;14.394;2022-09-03T02:48:43;93767.31;;;8.94;69.79
64211;BME280;50528;48.514;14.394;2022-09-03T02:49:47;93768.23;;;8.92;69.79
64211;BME280;50528;48.514;14.394;2022-09-03T02:50:52;93763.71;;;8.89;69.81
64211;BME280;50528;48.514;14.394;2022-09-03T02:51:57;93767.30;;;8.89;69.78
64211;BME280;50528;48.514;14.394;2022-09-03T02:53:01;93763.02;;;8.85;69.79
64211;BME280;50528;48.514;14.394;2022-09-03T02:54:03;93768.61;;;8.84;69.80
64211;BME280;50528;48.514;14.394;2022-09-03T02:55:04;93769.69;;;8.82;69.83
64211;BME280;50528;48.514;14.394;2022-09-03T02:56:06;93772.58;;;8.80;69.89
64211;BME280;50528;48.514;14.394;2022-09-03T02:57:08;93768.05;;;8.78;70.04
64211;BME280;50528;48.514;14.394;2022-09-03T02:58:10;93767.58;;;8.75;69.87
64211;BME280;50528;48.514;14.394;2022-09-03T02:59:12;93769.59;;;8.74;70.23
64211;BME280;50528;48.514;14.394;2022-09-03T03:00:14;93765.38;;;8.73;70.26
64211;BME280;50528;48.514;14.394;2022-09-03T03:01:15;93761.13;;;8.71;70.17
64211;BME280;50528;48.514;14.394;2022-09-03T03:02:24;93763.24;;;8.70;70.14
64211;BME280;50528;48.514;14.394;2022-09-03T03:03:26;93754.04;;;8.68;69.97
64211;BME280;50528;48.514;14.394;2022-09-03T03:04:29;93762.49;;;8.66;69.99
64211;BME280;50528;48.514;14.394;2022-09-03T03:05:47;93762.39;;;8.62;70.03
64211;BME280;50528;48.514;14.394;2022-09-03T03:06:49;93764.55;;;8.63;70.33
64211;BME280;50528;48.514;14.394;2022-09-03T03:07:51;93760.48;;;8.62;70.40
64211;BME280;50528;48.514;14.394;2022-09-03T03:08:52;93755.05;;;8.60;70.50
64211;BME280;50528;48.514;14.394;2022-09-03T03:09:56;93754.87;;;8.61;70.58
64211;BME280;50528;48.514;14.394;2022-09-03T03:10:59;93757.85;;;8.61;71.05
64211;BME280;50528;48.514;14.394;2022-09-03T03:12:01;93757.98;;;8.60;70.95
64211;BME280;50528;48.514;14.394;2022-09-03T03:13:02;93757.36;;;8.60;70.79
64211;BME280;50528;48.514;14.394;2022-09-03T03:14:04;93762.86;;;8.60;70.63
64211;BME280;50528;48.514;14.394;2022-09-03T03:15:06;93756.57;;;8.59;70.73
64211;BME280;50528;48.514;14.394;2022-09-03T03:16:07;93753.04;;;8.58;70.39
64211;BME280;50528;48.514;14.394;2022-09-03T03:17:11;93749.00;;;8.57;70.78
64211;BME280;50528;48.514;14.394;2022-09-03T03:18:12;93750.50;;;8.59;70.59
64211;BME280;50528;48.514;14.394;2022-09-03T03:19:14;93746.52;;;8.59;70.81
64211;BME280;50528;48.514;14.394;2022-09-03T03:20:15;93750.23;;;8.58;71.02
64211;BME280;50528;48.514;14.394;2022-09-03T03:21:17;93748.34;;;8.58;70.93
64211;BME280;50528;48.514;14.394;2022-09-03T03:22:20;93756.98;;;8.59;70.95
64211;BME280;50528;48.514;14.394;2022-09-03T03:23:22;93751.65;;;8.58;70.34
64211;BME280;50528;48.514;14.394;2022-09-03T03:24:24;93752.80;;;8.59;70.48
64211;BME280;50528;48.514;14.394;2022-09-03T03:25:26;93752.58;;;8.59;70.66
64211;BME280;50528;48.514;14.394;2022-09-03T03:26:27;93755.38;;;8.60;71.05
64211;BME280;50528;48.514;14.394;2022-09-03T03:27:31;93742.53;;;8.56;70.75
64211;BME280;50528;48.514;14.394;2022-09-03T03:28:35;93746.56;;;8.59;70.60
64211;BME280;50528;48.514;14.394;2022-09-03T03:29:37;93749.56;;;8.63;70.59
64211;BME280;50528;48.514;14.394;2022-09-03T03:30:39;93753.27;;;8.61;70.50
64211;BME280;50528;48.514;14.394;2022-09-03T03:31:45;93753.41;;;8.64;70.52
64211;BME280;50528;48.514;14.394;2022-09-03T03:32:47;93749.20;;;8.63;70.27
64211;BME280;50528;48.514;14.394;2022-09-03T03:33:49;93752.81;;;8.66;70.29
64211;BME280;50528;48.514;14.394;2022-09-03T03:34:51;93750.13;;;8.65;70.14
64211;BME280;50528;48.514;14.394;2022-09-03T03:35:53;93751.45;;;8.63;70.38
64211;BME280;50528;48.514;14.394;2022-09-03T03:36:55;93748.14;;;8.63;70.53
64211;BME280;50528;48.514;14.394;2022-09-03T03:37:59;93751.81;;;8.63;70.63
64211;BME280;50528;48.514;14.394;2022-09-03T03:39:01;93754.80;;;8.63;70.76
64211;BME280;50528;48.514;14.394;2022-09-03T03:40:03;93751.13;;;8.63;70.81
64211;BME280;50528;48.514;14.394;2022-09-03T03:41:07;93751.93;;;8.63;70.83
64211;BME280;50528;48.514;14.394;2022-09-03T03:42:09;93756.08;;;8.64;71.64
64211;BME280;50528;48.514;14.394;2022-09-03T03:43:10;93762.19;;;8.66;71.25
64211;BME280;50528;48.514;14.394;2022-09-03T03:44:12;93745.32;;;8.58;71.40
64211;BME280;50528;48.514;14.394;2022-09-03T03:45:14;93759.22;;;8.68;71.49
64211;BME280;50528;48.514;14.394;2022-09-03T03:46:15;93764.05;;;8.68;71.24
64211;BME280;50528;48.514;14.394;2022-09-03T03:47:17;93758.43;;;8.68;71.23
64211;BME280;50528;48.514;14.394;2022-09-03T03:48:19;93757.46;;;8.66;71.34
64211;BME280;50528;48.514;14.394;2022-09-03T03:49:21;93763.56;;;8.68;71.37
64211;BME280;50528;48.514;14.394;2022-09-03T03:50:22;93759.12;;;8.68;71.34
64211;BME280;50528;48.514;14.394;2022-09-03T03:51:25;93758.20;;;8.67;71.42
64211;BME280;50528;48.514;14.394;2022-09-03T03:52:27;93759.63;;;8.63;71.65
64211;BME280;50528;48.514;14.394;2022-09-03T03:53:29;93758.77;;;8.58;71.37
64211;BME280;50528;48.514;14.394;2022-09-03T03:54:31;93755.15;;;8.58;71.31
64211;BME280;50528;48.514;14.394;2022-09-03T03:55:33;93755.29;;;8.57;71.34
64211;BME280;50528;48.514;14.394;2022-09-03T03:56:36;93759.20;;;8.54;71.72
64211;BME280;50528;48.514;14.394;2022-09-03T03:57:37;93758.65;;;8.52;71.62
64211;BME280;50528;48.514;14.394;2022-09-03T03:58:39;93759.42;;;8.51;72.07
64211;BME280;50528;48.514;14.394;2022-09-03T03:59:43;93761.63;;;8.49;71.96
64211;BME280;50528;48.514;14.394;2022-09-03T04:00:45;93760.52;;;8.48;71.77
64211;BME280;50528;48.514;14.394;2022-09-03T04:01:50;93762.61;;;8.48;71.71
64211;BME280;50528;48.514;14.394;2022-09-03T04:02:52;93762.19;;;8.48;71.93
64211;BME280;50528;48.514;14.394;2022-09-03T04:03:54;93760.25;;;8.48;72.04
64211;BME280;50528;48.514;14.394;2022-09-03T04:04:57;93758.27;;;8.47;71.77
64211;BME280;50528;48.514;14.394;2022-09-03T04:06:00;93760.30;;;8.48;71.69
64211;BME280;50528;48.514;14.394;2022-09-03T04:07:03;93757.58;;;8.47;71.83
64211;BME280;50528;48.514;14.394;2022-09-03T04:08:04;93755.84;;;8.47;71.75
64211;BME280;50528;48.514;14.394;2022-09-03T04:09:06;93758.55;;;8.47;71.70
64211;BME280;50528;48.514;14.394;2022-09-03T04:10:08;93758.29;;;8.46;71.61
64211;BME280;50528;48.514;14.394;2022-09-03T04:11:10;93758.05;;;8.45;71.44
64211;BME280;50528;48.514;14.394;2022-09-03T04:12:12;93759.97;;;8.44;71.17
64211;BME280;50528;48.514;14.394;2022-09-03T04:13:14;93756.91;;;8.43;71.44
64211;BME280;50528;48.514;14.394;2022-09-03T04:14:16;93757.80;;;8.39;71.44
64211;BME280;50528;48.514;14.394;2022-09-03T04:15:20;93758.06;;;8.40;71.05
64211;BME280;50528;48.514;14.394;2022-09-03T04:16:23;93755.56;;;8.38;71.78
64211;BME280;50528;48.514;14.394;2022-09-03T04:17:26;93754.54;;;8.35;71.11
64211;BME280;50528;48.514;14.394;2022-09-03T04:18:28;93757.16;;;8.33;71.47
64211;BME280;50528;48.514;14.394;2022-09-03T04:19:30;93759.80;;;8.32;71.18
64211;BME280;50528;48.514;14.394;2022-09-03T04:20:31;93765.01;;;8.30;71.62
64211;BME280;50528;48.514;14.394;2022-09-03T04:21:33;93769.67;;;8.29;71.65
64211;BME280;50528;48.514;14.394;2022-09-03T04:22:39;93771.64;;;8.25;71.46
64211;BME280;50528;48.514;14.394;2022-09-03T04:23:41;93775.68;;;8.22;71.72
64211;BME280;50528;48.514;14.394;2022-09-03T04:24:46;93774.63;;;8.20;71.94
64211;BME280;50528;48.514;14.394;2022-09-03T04:25:57;93775.25;;;8.20;72.20
64211;BME280;50528;48.514;14.394;2022-09-03T04:26:58;93776.80;;;8.21;71.87
64211;BME280;50528;48.514;14.394;2022-09-03T04:28:00;93780.47;;;8.21;72.02
64211;BME280;50528;48.514;14.394;2022-09-03T04:29:06;93778.37;;;8.21;71.74
64211;BME280;50528;48.514;14.394;2022-09-03T04:30:08;93778.19;;;8.20;71.88
64211;BME280;50528;48.514;14.394;2022-09-03T04:31:10;93779.41;;;8.21;72.13
64211;BME280;50528;48.514;14.394;2022-09-03T04:32:14;93778.16;;;8.21;71.80
64211;BME280;50528;48.514;14.394;2022-09-03T04:33:35;93777.00;;;8.21;71.93
64211;BME280;50528;48.514;14.394;2022-09-03T04:34:40;93772.86;;;8.20;72.21
64211;BME280;50528;48.514;14.394;2022-09-03T04:35:42;93775.06;;;8.21;72.38
64211;BME280;50528;48.514;14.394;2022-09-03T04:36:44;93775.11;;;8.23;72.75
64211;BME280;50528;48.514;14.394;2022-09-03T04:37:53;93774.20;;;8.24;72.32
64211;BME280;50528;48.514;14.394;2022-09-03T04:38:57;93776.89;;;8.26;72.36
64211;BME280;50528;48.514;14.394;2022-09-03T04:39:59;93774.98;;;8.27;72.86
64211;BME280;50528;48.514;14.394;2022-09-03T04:41:01;93772.61;;;8.29;73.06
64211;BME280;50528;48.514;14.394;2022-09-03T04:42:03;93771.77;;;8.30;72.39
64211;BME280;50528;48.514;14.394;2022-09-03T04:43:05;93772.41;;;8.32;72.24
64211;BME280;50528;48.514;14.394;2022-09-03T04:44:06;93772.95;;;8.32;72.00
64211;BME280;50528;48.514;14.394;2022-09-03T04:45:09;93772.27;;;8.30;72.91
64211;BME280;50528;48.514;14.394;2022-09-03T04:46:12;93776.30;;;8.28;72.20
64211;BME280;50528;48.514;14.394;2022-09-03T04:47:19;93776.41;;;8.26;72.16
64211;BME280;50528;48.514;14.394;2022-09-03T04:48:20;93777.34;;;8.24;71.80
64211;BME280;50528;48.514;14.394;2022-09-03T04:49:22;93779.59;;;8.22;71.66
64211;BME280;50528;48.514;14.394;2022-09-03T04:50:25;93781.42;;;8.19;71.64
64211;BME280;50528;48.514;14.394;2022-09-03T04:51:28;93783.87;;;8.16;71.89
64211;BME280;50528;48.514;14.394;2022-09-03T04:52:30;93783.73;;;8.14;71.76
64211;BME280;50528;48.514;14.394;2022-09-03T04:53:35;93781.35;;;8.13;72.27
64211;BME280;50528;48.514;14.394;2022-09-03T04:54:37;93785.40;;;8.14;72.53
64211;BME280;50528;48.514;14.394;2022-09-03T04:55:39;93782.13;;;8.15;72.25
64211;BME280;50528;48.514;14.394;2022-09-03T04:56:40;93781.17;;;8.16;72.22
64211;BME280;50528;48.514;14.394;2022-09-03T04:57:42;93778.91;;;8.18;72.32
64211;BME280;50528;48.514;14.394;2022-09-03T04:58:46;93778.58;;;8.21;72.31
64211;BME280;50528;48.514;14.394;2022-09-03T04:59:52;93783.63;;;8.24;72.45
64211;BME280;50528;48.514;14.394;2022-09-03T05:00:53;93789.11;;;8.27;72.39
64211;BME280;50528;48.514;14.394;2022-09-03T05:01:55;93791.41;;;8.28;72.75
64211;BME280;50528;48.514;14.394;2022-09-03T05:02:59;93793.61;;;8.33;73.16
64211;BME280;50528;48.514;14.394;2022-09-03T05:04:01;93795.52;;;8.37;73.22
64211;BME280;50528;48.514;14.394;2022-09-03T05:05:03;93795.02;;;8.41;73.03
64211;BME280;50528;48.514;14.394;2022-09-03T05:06:05;93797.19;;;8.45;73.05
64211;BME280;50528;48.514;14.394;2022-09-03T05:07:08;93797.36;;;8.50;73.16
64211;BME280;50528;48.514;14.394;2022-09-03T05:08:10;93795.23;;;8.53;73.11
64211;BME280;50528;48.514;14.394;2022-09-03T05:09:12;93792.10;;;8.56;72.95
64211;BME280;50528;48.514;14.394;2022-09-03T05:10:14;93791.20;;;8.59;73.17
64211;BME280;50528;48.514;14.394;2022-09-03T05:11:21;93783.77;;;8.60;73.16
64211;BME280;50528;48.514;14.394;2022-09-03T05:12:23;93784.58;;;8.63;72.91
64211;BME280;50528;48.514;14.394;2022-09-03T05:13:24;93780.02;;;8.64;72.86
64211;BME280;50528;48.514;14.394;2022-09-03T05:14:26;93782.15;;;8.67;72.75
64211;BME280;50528;48.514;14.394;2022-09-03T05:15:28;93778.58;;;8.65;72.84
64211;BME280;50528;48.514;14.394;2022-09-03T05:16:33;93783.52;;;8.69;72.64
64211;BME280;50528;48.514;14.394;2022-09-03T05:17:35;93780.48;;;8.70;72.48
64211;BME280;50528;48.514;14.394;2022-09-03T05:18:39;93787.66;;;8.73;72.51
64211;BME280;50528;48.514;14.394;2022-09-03T05:19:42;93786.24;;;8.73;72.70
64211;BME280;50528;48.514;14.394;2022-09-03T05:20:44;93784.89;;;8.73;72.92
64211;BME280;50528;48.514;14.394;2022-09-03T05:21:45;93788.27;;;8.75;72.61
64211;BME280;50528;48.514;14.394;2022-09-03T05:22:47;93785.77;;;8.73;72.46
64211;BME280;50528;48.514;14.394;2022-09-03T05:23:49;93789.66;;;8.76;72.47
64211;BME280;50528;48.514;14.394;2022-09-03T05:24:51;93791.71;;;8.76;72.65
64211;BME280;50528;48.514;14.394;2022-09-03T05:26:00;93796.28;;;8.78;73.47
64211;BME280;50528;48.514;14.394;2022-09-03T05:27:03;93792.89;;;8.81;73.30
64211;BME280;50528;48.514;14.394;2022-09-03T05:28:05;93791.31;;;8.84;72.78
64211;BME280;50528;48.514;14.394;2022-09-03T05:29:08;93785.95;;;8.86;72.83
64211;BME280;50528;48.514;14.394;2022-09-03T05:30:10;93782.23;;;8.89;72.59
64211;BME280;50528;48.514;14.394;2022-09-03T05:31:17;93775.35;;;8.86;72.76
64211;BME280;50528;48.514;14.394;2022-09-03T05:32:19;93778.10;;;8.91;73.02
64211;BME280;50528;48.514;14.394;2022-09-03T05:33:20;93779.36;;;8.94;72.75
64211;BME280;50528;48.514;14.394;2022-09-03T05:34:24;93780.64;;;8.95;73.10
64211;BME280;50528;48.514;14.394;2022-09-03T05:35:25;93782.13;;;8.96;73.00
64211;BME280;50528;48.514;14.394;2022-09-03T05:36:32;93782.91;;;8.99;72.91
64211;BME280;50528;48.514;14.394;2022-09-03T05:37:35;93786.61;;;9.01;72.71
64211;BME280;50528;48.514;14.394;2022-09-03T05:38:37;93789.77;;;9.04;73.23
64211;BME280;50528;48.514;14.394;2022-09-03T05:39:39;93788.63;;;9.05;73.37
64211;BME280;50528;48.514;14.394;2022-09-03T05:40:41;93785.36;;;9.08;73.38
64211;BME280;50528;48.514;14.394;2022-09-03T05:41:43;93774.59;;;9.03;73.05
64211;BME280;50528;48.514;14.394;2022-09-03T05:42:44;93791.58;;;9.13;73.37
64211;BME280;50528;48.514;14.394;2022-09-03T05:43:46;93792.38;;;9.14;72.75
64211;BME280;50528;48.514;14.394;2022-09-03T05:44:51;93793.35;;;9.16;72.83
64211;BME280;50528;48.514;14.394;2022-09-03T05:45:56;93794.16;;;9.17;72.90
64211;BME280;50528;48.514;14.394;2022-09-03T05:46:57;93793.55;;;9.19;72.71
64211;BME280;50528;48.514;14.394;2022-09-03T05:48:00;93793.36;;;9.20;72.72
64211;BME280;50528;48.514;14.394;2022-09-03T05:49:03;93790.55;;;9.21;72.84
64211;BME280;50528;48.514;14.394;2022-09-03T05:50:06;93787.16;;;9.22;72.72
64211;BME280;50528;48.514;14.394;2022-09-03T05:51:10;93787.05;;;9.23;72.72
64211;BME280;50528;48.514;14.394;2022-09-03T05:52:12;93791.69;;;9.23;73.39
64211;BME280;50528;48.514;14.394;2022-09-03T05:53:13;93786.02;;;9.24;73.16
64211;BME280;50528;48.514;14.394;2022-09-03T05:54:15;93785.54;;;9.27;73.64
64211;BME280;50528;48.514;14.394;2022-09-03T05:55:20;93783.12;;;9.29;73.46
64211;BME280;50528;48.514;14.394;2022-09-03T05:56:23;93782.67;;;9.31;73.34
64211;BME280;50528;48.514;14.394;2022-09-03T05:57:26;93779.59;;;9.31;73.35
64211;BME280;50528;48.514;14.394;2022-09-03T05:58:31;93782.88;;;9.38;73.57
64211;BME280;50528;48.514;14.394;2022-09-03T05:59:33;93781.03;;;9.40;73.27
64211;BME280;50528;48.514;14.394;2022-09-03T06:00:34;93778.42;;;9.42;73.67
64211;BME280;50528;48.514;14.394;2022-09-03T06:01:38;93780.98;;;9.44;74.50
64211;BME280;50528;48.514;14.394;2022-09-03T06:02:40;93775.50;;;9.46;73.72
64211;BME280;50528;48.514;14.394;2022-09-03T06:03:46;93774.37;;;9.49;73.84
64211;BME280;50528;48.514;14.394;2022-09-03T06:04:48;93776.88;;;9.52;73.62
64211;BME280;50528;48.514;14.394;2022-09-03T06:05:50;93777.34;;;9.54;74.11
64211;BME280;50528;48.514;14.394;2022-09-03T06:06:52;93777.70;;;9.58;74.37
64211;BME280;50528;48.514;14.394;2022-09-03T06:07:53;93781.83;;;9.60;74.62
64211;BME280;50528;48.514;14.394;2022-09-03T06:08:56;93783.67;;;9.62;74.71
64211;BME280;50528;48.514;14.394;2022-09-03T06:10:01;93787.39;;;9.64;74.48
64211;BME280;50528;48.514;14.394;2022-09-03T06:11:07;93789.58;;;9.67;74.61
64211;BME280;50528;48.514;14.394;2022-09-03T06:12:08;93789.18;;;9.69;75.36
64211;BME280;50528;48.514;14.394;2022-09-03T06:13:10;93787.50;;;9.72;74.25
64211;BME280;50528;48.514;14.394;2022-09-03T06:14:12;93787.04;;;9.73;73.98
64211;BME280;50528;48.514;14.394;2022-09-03T06:15:15;93784.92;;;9.76;74.15
64211;BME280;50528;48.514;14.394;2022-09-03T06:16:17;93782.85;;;9.79;74.26
64211;BME280;50528;48.514;14.394;2022-09-03T06:17:27;93781.17;;;9.82;74.22
64211;BME280;50528;48.514;14.394;2022-09-03T06:18:29;93773.25;;;9.83;74.05
64211;BME280;50528;48.514;14.394;2022-09-03T06:19:30;93773.16;;;9.88;74.79
64211;BME280;50528;48.514;14.394;2022-09-03T06:20:32;93777.86;;;9.90;75.20
64211;BME280;50528;48.514;14.394;2022-09-03T06:21:39;93778.20;;;9.93;75.71
64211;BME280;50528;48.514;14.394;2022-09-03T06:22:47;93783.83;;;9.96;75.57
64211;BME280;50528;48.514;14.394;2022-09-03T06:23:49;93779.45;;;9.99;74.70
64211;BME280;50528;48.514;14.394;2022-09-03T06:24:52;93779.80;;;10.02;74.56
64211;BME280;50528;48.514;14.394;2022-09-03T06:26:01;93777.02;;;10.05;74.64
64211;BME280;50528;48.514;14.394;2022-09-03T06:27:06;93773.90;;;10.09;74.49
64211;BME280;50528;48.514;14.394;2022-09-03T06:28:08;93774.05;;;10.12;74.86
64211;BME280;50528;48.514;14.394;2022-09-03T06:29:10;93781.20;;;10.15;74.70